Portada
METAR-TAF:

METAR-TAF

Aeropuertos :

Castres, Francia

latitud: 43-33-25N, longitud: 2-17-21E, altitud: 239 m

Observación

El informe se hizo hace 23 minutos, a las 00:30 UTC
Viento 12 kt del este-sureste
Temperatura 9°C
Humedad 66%
Presión 1009 hPa
Visibilidad 10 km o más
sin nubes por debajo de 1500 m y sin presencia de cumulonimbus.

METAR: LFCK 190030Z AUTO 11012KT CAVOK 09/03 Q1009

Hora: 01:53 (00:53 UTC)

Pronóstico

El informe se hizo hace 7 horas y 53 minutos, a las 17:00 UTC
Pronóstico válido del 18 a las 18 UTC al 19 a las 03 UTC
Viento 23 kt del este-sureste con ráfagas de 35 kt
Visibilidad 10 km o más
sin nubes por debajo de 1500 m y sin presencia de cumulonimbus.

TAF: LFCK 181700Z 1818/1903 11023G35KT CAVOK

Observaciones y pronósticos meteorológicos de más de 4000 aeropuertos (mensajes METAR y TAF).

Los puntos amarillos y rojos representan las estaciones disponibles.

Ponga el ratón en el punto deseado para ver el nombre de la estación.

Haga clic para ver las observaciones y los pronósticos meteorológicos.

Para cambiar el mapa : haga clic en los botones verdes con una cruz de color negro para hacer un zoom, en el botón verde con un guión para alejar o en las flechas verdes para mapas adyacentes.


METAR-TAF: